createdAt,value
2019-05-26T00:02:13.779Z,4.83
2019-05-26T00:04:42.201Z,5.75
2019-05-26T00:07:10.602Z,4.78
2019-05-26T00:09:39.418Z,6.00
2019-05-26T00:12:07.793Z,5.28
2019-05-26T00:14:37.716Z,5.90
2019-05-26T00:17:06.108Z,4.75
2019-05-26T00:19:34.519Z,5.62
2019-05-26T00:22:02.890Z,5.80
2019-05-26T00:24:31.304Z,6.57
2019-05-26T00:26:59.697Z,6.80
2019-05-26T00:29:28.074Z,7.47
2019-05-26T00:31:56.677Z,8.68
2019-05-26T00:34:25.055Z,7.40
2019-05-26T00:36:53.534Z,8.33
2019-05-26T00:39:22.013Z,7.37
2019-05-26T00:41:50.419Z,6.90
2019-05-26T00:44:20.663Z,6.72
2019-05-26T00:46:49.260Z,6.90
2019-05-26T00:49:17.654Z,6.75
2019-05-26T00:51:46.194Z,6.33
2019-05-26T00:54:14.661Z,6.70
2019-05-26T00:56:43.258Z,5.85
2019-05-26T00:59:11.654Z,7.27
2019-05-26T01:01:40.094Z,7.53
2019-05-26T01:04:08.614Z,7.10
2019-05-26T01:06:37.014Z,6.80
2019-05-26T01:09:07.619Z,7.87
2019-05-26T01:11:36.230Z,7.33
2019-05-26T01:14:04.970Z,7.83
2019-05-26T01:16:34.916Z,6.77
2019-05-26T01:19:04.568Z,7.08
2019-05-26T01:21:32.983Z,7.97
2019-05-26T01:24:01.368Z,6.40
2019-05-26T01:26:29.781Z,6.10
2019-05-26T01:28:58.181Z,5.90
2019-05-26T01:31:26.595Z,6.47
2019-05-26T01:33:54.984Z,7.28
2019-05-26T01:36:23.447Z,6.03
2019-05-26T01:38:53.494Z,6.45
2019-05-26T01:41:21.882Z,6.58
2019-05-26T01:43:50.363Z,7.75
2019-05-26T01:46:18.707Z,6.85
2019-05-26T01:48:47.128Z,7.97
2019-05-26T01:51:15.517Z,7.65
2019-05-26T01:53:43.949Z,6.47
2019-05-26T01:56:12.338Z,4.95
2019-05-26T01:58:40.854Z,6.22
2019-05-26T02:01:11.332Z,8.14
2019-05-26T02:03:39.443Z,6.63
2019-05-26T02:06:07.839Z,5.67
2019-05-26T02:08:39.777Z,6.67
2019-05-26T02:11:07.880Z,6.37
2019-05-26T02:13:36.286Z,6.65
2019-05-26T02:16:05.156Z,6.58
2019-05-26T02:18:33.579Z,6.43
2019-05-26T02:21:02.089Z,6.55
2019-05-26T02:23:32.086Z,8.00
2019-05-26T02:26:00.542Z,8.57
2019-05-26T02:28:28.947Z,8.13
2019-05-26T02:30:58.881Z,7.85
2019-05-26T02:33:28.817Z,7.50
2019-05-26T02:35:57.485Z,6.60
2019-05-26T02:38:26.656Z,9.33
2019-05-26T02:40:55.491Z,7.12
2019-05-26T02:43:23.896Z,6.97
2019-05-26T02:45:52.366Z,7.20
2019-05-26T02:48:20.773Z,6.87
2019-05-26T02:50:49.489Z,5.78
2019-05-26T02:53:24.402Z,8.18
2019-05-26T02:55:49.576Z,7.93
2019-05-26T02:58:18.288Z,8.00
2019-05-26T03:00:47.822Z,7.97
2019-05-26T03:03:16.955Z,7.83
2019-05-26T03:05:47.002Z,8.45
2019-05-26T03:08:16.527Z,8.23
2019-05-26T03:10:45.447Z,8.05
2019-05-26T03:13:15.494Z,7.67
2019-05-26T03:15:45.747Z,7.42
2019-05-26T03:18:14.303Z,8.33
2019-05-26T03:20:43.756Z,8.35
2019-05-26T03:23:12.321Z,9.08
2019-05-26T03:25:40.786Z,7.92
2019-05-26T03:28:09.242Z,7.72
2019-05-26T03:30:38.184Z,7.10
2019-05-26T03:33:06.856Z,9.20
2019-05-26T03:35:35.344Z,13.68
2019-05-26T03:38:04.652Z,9.30
2019-05-26T03:40:33.063Z,9.18
2019-05-26T03:43:01.610Z,10.23
2019-05-26T03:45:35.672Z,9.85
2019-05-26T03:48:04.541Z,8.23
2019-05-26T03:50:32.928Z,8.10
2019-05-26T03:53:01.430Z,7.87
2019-05-26T03:55:29.843Z,8.40
2019-05-26T03:57:58.228Z,7.72
2019-05-26T04:00:26.778Z,7.55
2019-05-26T04:02:55.232Z,8.43
2019-05-26T04:05:23.790Z,8.75
2019-05-26T04:07:52.195Z,9.58
2019-05-26T04:10:20.584Z,9.55
2019-05-26T04:12:48.978Z,7.60
2019-05-26T04:15:17.367Z,9.17
2019-05-26T04:17:45.777Z,8.23
2019-05-26T04:20:15.035Z,7.95
2019-05-26T04:22:43.446Z,8.80
2019-05-26T04:25:11.925Z,8.70
2019-05-26T04:27:40.702Z,9.70
2019-05-26T04:30:10.960Z,8.48
2019-05-26T04:32:39.372Z,10.23
2019-05-26T04:35:07.831Z,9.45
2019-05-26T04:37:36.253Z,10.38
2019-05-26T04:40:25.067Z,9.18
2019-05-26T04:42:37.851Z,11.57
2019-05-26T04:45:10.563Z,9.13
2019-05-26T04:47:39.126Z,9.98
2019-05-26T04:50:07.975Z,9.78
2019-05-26T04:52:36.425Z,8.80
2019-05-26T04:55:09.131Z,11.63
2019-05-26T04:57:37.560Z,8.58
2019-05-26T05:00:08.387Z,7.90
2019-05-26T05:02:38.406Z,9.58
2019-05-26T05:05:10.084Z,11.80
2019-05-26T05:07:38.641Z,12.37
2019-05-26T05:10:07.862Z,10.50
2019-05-26T05:12:36.527Z,12.73
2019-05-26T05:15:08.801Z,12.65
2019-05-26T05:17:37.316Z,12.33
2019-05-26T05:20:09.123Z,13.38
2019-05-26T05:22:37.851Z,11.05
2019-05-26T05:25:14.697Z,11.38
2019-05-26T05:27:39.586Z,10.00
2019-05-26T05:30:09.264Z,11.25
2019-05-26T05:32:38.198Z,11.35
2019-05-26T05:35:08.572Z,12.20
2019-05-26T05:37:37.097Z,12.05
2019-05-26T05:40:09.570Z,11.67
2019-05-26T05:42:38.290Z,11.48
2019-05-26T05:45:09.074Z,11.65
2019-05-26T05:47:37.551Z,11.88
2019-05-26T05:50:10.717Z,11.30
2019-05-26T05:52:39.109Z,11.30
2019-05-26T05:55:08.391Z,10.70
2019-05-26T05:57:36.855Z,10.75
2019-05-26T06:00:10.284Z,11.12
2019-05-26T06:02:38.699Z,10.88
2019-05-26T06:05:08.376Z,11.38
2019-05-26T06:07:38.521Z,11.08
2019-05-26T06:10:10.584Z,10.82
2019-05-26T06:12:40.549Z,10.08
2019-05-26T06:15:10.711Z,11.60
2019-05-26T06:17:39.152Z,11.70
2019-05-26T06:20:09.713Z,11.85
2019-05-26T06:22:38.194Z,11.30
2019-05-26T06:25:07.445Z,11.63
2019-05-26T06:27:35.877Z,11.70
2019-05-26T06:30:06.423Z,11.68
2019-05-26T06:32:34.827Z,11.83
2019-05-26T06:35:03.262Z,10.45
2019-05-26T06:37:31.663Z,10.58
2019-05-26T06:40:00.182Z,10.32
2019-05-26T06:42:28.608Z,10.80
2019-05-26T06:44:57.149Z,10.18
2019-05-26T06:47:25.555Z,9.53
2019-05-26T06:49:53.963Z,9.18
2019-05-26T06:52:22.369Z,9.20
2019-05-26T06:54:50.762Z,10.75
2019-05-26T06:57:19.269Z,9.18
2019-05-26T06:59:47.654Z,7.93
2019-05-26T07:02:16.130Z,8.73
2019-05-26T07:04:44.562Z,8.03
2019-05-26T07:07:12.997Z,7.20
2019-05-26T07:09:41.554Z,8.53
2019-05-26T07:12:09.913Z,8.20
2019-05-26T07:14:38.453Z,8.78
2019-05-26T07:17:08.387Z,8.43
2019-05-26T07:19:36.859Z,7.55
2019-05-26T07:22:06.858Z,7.53
2019-05-26T07:24:35.365Z,7.70
2019-05-26T07:27:04.663Z,7.10
2019-05-26T07:29:33.039Z,7.60
2019-05-26T07:32:01.599Z,7.87
2019-05-26T07:34:30.042Z,8.00
2019-05-26T07:36:58.943Z,7.50
2019-05-26T07:39:27.787Z,7.53
2019-05-26T07:42:09.446Z,7.65
2019-05-26T07:44:26.327Z,7.37
2019-05-26T07:46:54.838Z,6.90
2019-05-26T07:49:23.333Z,7.35
2019-05-26T07:51:53.334Z,8.23
2019-05-26T07:54:25.577Z,6.30
2019-05-26T07:56:53.384Z,6.80
2019-05-26T07:59:24.109Z,6.87
2019-05-26T08:01:52.633Z,7.60
2019-05-26T08:04:21.058Z,6.58
2019-05-26T08:06:49.494Z,6.67
2019-05-26T08:09:17.890Z,6.37
2019-05-26T08:11:46.621Z,6.83
2019-05-26T08:14:15.025Z,6.67
2019-05-26T08:16:43.422Z,6.37
2019-05-26T08:19:11.916Z,6.87
2019-05-26T08:21:40.552Z,6.43
2019-05-26T08:24:08.987Z,5.60
2019-05-26T08:26:37.368Z,7.00
2019-05-26T08:29:05.846Z,6.60
2019-05-26T08:31:34.249Z,6.58
2019-05-26T08:34:02.847Z,7.50
2019-05-26T08:36:31.380Z,6.90
2019-05-26T08:38:59.802Z,7.20
2019-05-26T08:41:28.237Z,6.47
2019-05-26T08:43:56.830Z,6.65
2019-05-26T08:46:25.340Z,6.62
2019-05-26T08:48:53.776Z,7.33
2019-05-26T08:51:22.472Z,7.00
2019-05-26T08:53:51.037Z,6.78
2019-05-26T08:56:19.444Z,6.97
2019-05-26T08:58:48.094Z,6.62
2019-05-26T09:01:16.489Z,6.60
2019-05-26T09:03:46.413Z,6.25
2019-05-26T09:06:14.919Z,7.17
2019-05-26T09:08:43.335Z,6.70
2019-05-26T09:11:11.808Z,6.10
2019-05-26T09:13:40.212Z,5.90
2019-05-26T09:16:08.623Z,6.65
2019-05-26T09:18:37.027Z,6.42
2019-05-26T09:21:05.418Z,6.43
2019-05-26T09:23:33.823Z,6.67
2019-05-26T09:26:02.239Z,6.50
2019-05-26T09:28:30.693Z,6.25
2019-05-26T09:30:59.210Z,6.45
2019-05-26T09:33:27.597Z,6.65
2019-05-26T09:35:56.014Z,5.28
2019-05-26T09:38:24.412Z,6.05
2019-05-26T09:40:52.960Z,5.85
2019-05-26T09:43:21.573Z,5.47
2019-05-26T09:45:51.533Z,5.65
2019-05-26T09:48:20.000Z,5.20
2019-05-26T09:50:49.080Z,5.17
2019-05-26T09:53:17.479Z,4.90
2019-05-26T09:55:45.887Z,4.50
2019-05-26T09:58:14.368Z,4.87
2019-05-26T10:00:44.316Z,5.10
2019-05-26T10:03:13.359Z,5.00
2019-05-26T10:05:42.425Z,4.12
2019-05-26T10:08:10.940Z,4.85
2019-05-26T10:10:39.358Z,5.07
2019-05-26T10:13:07.742Z,3.98
2019-05-26T10:15:36.206Z,5.70
2019-05-26T10:18:06.171Z,4.10
2019-05-26T10:20:34.591Z,5.00
2019-05-26T10:23:03.197Z,4.55
2019-05-26T10:25:31.601Z,4.50
2019-05-26T10:28:00.124Z,4.75
2019-05-26T10:30:28.536Z,7.03
2019-05-26T10:32:56.984Z,5.28
2019-05-26T10:35:25.579Z,4.83
2019-05-26T10:37:53.967Z,4.60
2019-05-26T10:40:22.549Z,4.70
2019-05-26T10:42:51.030Z,4.97
2019-05-26T10:45:20.131Z,5.03
2019-05-26T10:47:48.653Z,4.15
2019-05-26T10:50:17.397Z,15.20
2019-05-26T10:52:46.038Z,5.80
2019-05-26T10:55:14.727Z,4.78
2019-05-26T10:57:43.166Z,4.65
2019-05-26T11:00:13.880Z,5.03
2019-05-26T11:02:42.296Z,4.83
2019-05-26T11:05:10.890Z,3.65
2019-05-26T11:07:39.292Z,4.70
2019-05-26T11:10:08.318Z,4.47
2019-05-26T11:12:36.844Z,3.55
2019-05-26T11:15:09.701Z,3.60
2019-05-26T11:17:38.257Z,3.80
2019-05-26T11:20:12.193Z,3.90
2019-05-26T11:22:40.639Z,3.57
2019-05-26T11:25:11.491Z,3.37
2019-05-26T11:27:39.909Z,3.10
2019-05-26T11:30:10.824Z,2.83
2019-05-26T11:32:40.808Z,2.92
2019-05-26T11:35:10.167Z,3.27
2019-05-26T11:37:42.951Z,3.30
2019-05-26T11:40:13.106Z,3.20
2019-05-26T11:42:44.607Z,2.77
2019-05-26T11:45:12.051Z,3.22
2019-05-26T11:47:40.575Z,3.17
2019-05-26T11:50:09.500Z,2.52
2019-05-26T11:52:38.177Z,2.80
2019-05-26T11:55:09.909Z,2.62
2019-05-26T11:57:38.513Z,2.58
2019-05-26T12:00:16.339Z,2.15
2019-05-26T12:02:46.036Z,2.00
2019-05-26T12:05:17.643Z,2.30
2019-05-26T12:07:45.860Z,2.20
2019-05-26T12:10:14.890Z,2.27
2019-05-26T12:12:44.853Z,2.58
2019-05-26T12:15:15.506Z,6.97
2019-05-26T12:17:44.069Z,2.20
2019-05-26T12:20:12.661Z,1.98
2019-05-26T12:22:41.143Z,1.47
2019-05-26T12:25:10.207Z,1.40
2019-05-26T12:27:38.644Z,1.25
2019-05-26T12:30:10.168Z,1.30
2019-05-26T12:32:38.742Z,1.50
2019-05-26T12:35:10.998Z,1.20
2019-05-26T12:37:40.567Z,1.22
2019-05-26T12:40:10.932Z,1.25
2019-05-26T12:42:39.419Z,1.30
2019-05-26T12:45:09.870Z,1.10
2019-05-26T12:47:38.701Z,1.30
2019-05-26T12:50:09.667Z,1.22
2019-05-26T12:52:38.144Z,1.17
2019-05-26T12:55:09.279Z,1.00
2019-05-26T12:57:38.006Z,1.15
2019-05-26T13:00:10.525Z,1.10
2019-05-26T13:02:38.942Z,1.20
2019-05-26T13:05:08.676Z,1.50
2019-05-26T13:07:37.232Z,1.05
2019-05-26T13:10:09.396Z,1.10
2019-05-26T13:12:42.268Z,1.32
2019-05-26T13:15:12.728Z,1.20
2019-05-26T13:17:41.128Z,1.10
2019-05-26T13:20:10.665Z,1.13
2019-05-26T13:22:40.587Z,0.80
2019-05-26T13:25:11.299Z,0.87
2019-05-26T13:27:39.769Z,1.25
2019-05-26T13:30:11.249Z,1.22
2019-05-26T13:32:39.640Z,1.15
2019-05-26T13:35:09.265Z,1.27
2019-05-26T13:37:37.734Z,1.22
2019-05-26T13:40:07.994Z,1.20
2019-05-26T13:42:37.064Z,1.30
2019-05-26T13:45:21.880Z,0.95
2019-05-26T13:47:40.355Z,1.40
2019-05-26T13:50:09.815Z,1.40
2019-05-26T13:52:38.226Z,1.45
2019-05-26T13:55:08.940Z,1.50
2019-05-26T13:57:37.350Z,1.30
2019-05-26T14:00:08.755Z,1.40
2019-05-26T14:02:37.317Z,1.20
2019-05-26T14:05:08.903Z,1.10
2019-05-26T14:07:37.353Z,1.50
2019-05-26T14:10:08.226Z,1.32
2019-05-26T14:12:36.716Z,1.20
2019-05-26T14:15:09.748Z,1.50
2019-05-26T14:17:42.894Z,1.50
2019-05-26T14:20:13.125Z,1.40
2019-05-26T14:22:41.542Z,1.50
2019-05-26T14:25:10.287Z,1.42
2019-05-26T14:27:38.691Z,1.40
2019-05-26T14:30:08.596Z,1.60
2019-05-26T14:32:37.066Z,1.50
2019-05-26T14:35:07.036Z,1.55
2019-05-26T14:37:35.589Z,1.67
2019-05-26T14:40:09.764Z,1.70
2019-05-26T14:42:38.841Z,2.00
2019-05-26T14:45:10.459Z,1.80
2019-05-26T14:47:38.890Z,1.70
2019-05-26T14:50:11.392Z,1.70
2019-05-26T14:52:39.814Z,1.50
2019-05-26T14:55:11.333Z,1.67
2019-05-26T14:57:40.023Z,1.80
2019-05-26T15:00:09.877Z,1.98
2019-05-26T15:02:38.468Z,1.62
2019-05-26T15:05:08.743Z,1.62
2019-05-26T15:07:37.152Z,1.30
2019-05-26T15:10:08.790Z,1.50
2019-05-26T15:12:37.182Z,1.80
2019-05-26T15:15:07.279Z,1.70
2019-05-26T15:17:35.843Z,1.47
2019-05-26T15:20:05.372Z,1.90
2019-05-26T15:22:34.080Z,1.60
2019-05-26T15:25:03.271Z,1.70
2019-05-26T15:27:33.292Z,1.70
2019-05-26T15:30:01.711Z,1.60
2019-05-26T15:32:30.111Z,1.60
2019-05-26T15:34:58.620Z,1.70
2019-05-26T15:37:27.326Z,2.30
2019-05-26T15:39:55.732Z,2.27
2019-05-26T15:42:24.131Z,1.72
2019-05-26T15:44:54.247Z,1.90
2019-05-26T15:47:22.718Z,1.67
2019-05-26T15:49:51.242Z,2.15
2019-05-26T15:52:19.874Z,1.50
2019-05-26T15:54:48.324Z,2.00
2019-05-26T15:57:16.696Z,1.80
2019-05-26T15:59:45.268Z,1.92
2019-05-26T16:02:13.954Z,21.15
2019-05-26T16:04:44.979Z,7.20
2019-05-26T16:07:12.592Z,4.65
2019-05-26T16:09:41.143Z,2.33
2019-05-26T16:12:09.528Z,2.20
2019-05-26T16:14:38.882Z,2.43
2019-05-26T16:17:07.357Z,1.90
2019-05-26T16:19:35.858Z,3.40
2019-05-26T16:22:05.761Z,2.42
2019-05-26T16:24:34.170Z,2.40
2019-05-26T16:27:18.162Z,2.35
2019-05-26T16:29:33.151Z,2.72
2019-05-26T16:32:01.904Z,1.98
2019-05-26T16:34:30.490Z,2.22
2019-05-26T16:36:58.918Z,11.45
2019-05-26T16:39:36.547Z,5.37
2019-05-26T16:41:57.439Z,11.12
2019-05-26T16:44:27.427Z,2.67
2019-05-26T16:46:57.025Z,2.62
2019-05-26T16:49:25.584Z,2.17
2019-05-26T16:51:53.982Z,1.70
2019-05-26T16:54:22.494Z,1.30
2019-05-26T16:56:52.201Z,1.40
2019-05-26T16:59:22.105Z,1.63
2019-05-26T17:01:50.589Z,1.75
2019-05-26T17:04:20.551Z,1.65
2019-05-26T17:06:48.997Z,1.60
2019-05-26T17:09:17.384Z,1.40
2019-05-26T17:11:48.927Z,1.67
2019-05-26T17:14:17.305Z,1.50
2019-05-26T17:16:45.719Z,1.20
2019-05-26T17:19:14.278Z,1.65
2019-05-26T17:21:42.679Z,1.42
2019-05-26T17:24:11.068Z,1.50
2019-05-26T17:26:39.509Z,1.12
2019-05-26T17:29:07.889Z,1.92
2019-05-26T17:31:36.457Z,2.20
2019-05-26T17:34:04.927Z,1.80
2019-05-26T17:36:33.380Z,3.45
2019-05-26T17:39:01.951Z,1.80
2019-05-26T17:41:30.475Z,1.67
2019-05-26T17:43:58.959Z,1.35
2019-05-26T17:46:27.394Z,1.27
2019-05-26T17:48:55.772Z,1.10
2019-05-26T17:51:24.333Z,1.27
2019-05-26T17:53:52.823Z,0.90
2019-05-26T17:56:21.529Z,0.80
2019-05-26T17:58:49.960Z,1.10
2019-05-26T18:01:19.903Z,1.13
2019-05-26T18:03:48.307Z,0.90
2019-05-26T18:06:16.800Z,0.90
2019-05-26T18:08:46.785Z,1.10
2019-05-26T18:11:15.210Z,1.22
2019-05-26T18:13:46.817Z,1.00
2019-05-26T18:16:15.596Z,0.80
2019-05-26T18:18:44.088Z,0.90
2019-05-26T18:21:13.995Z,1.05
2019-05-26T18:23:42.405Z,0.88
2019-05-26T18:26:10.904Z,1.10
2019-05-26T18:28:39.595Z,0.83
2019-05-26T18:31:08.008Z,0.90
2019-05-26T18:33:36.430Z,1.03
2019-05-26T18:36:04.827Z,4.37
2019-05-26T18:38:33.506Z,1.37
2019-05-26T18:41:01.938Z,0.95
2019-05-26T18:43:30.401Z,1.30
2019-05-26T18:45:58.796Z,1.35
2019-05-26T18:48:27.451Z,1.00
2019-05-26T18:50:55.761Z,1.00
2019-05-26T18:53:24.360Z,0.60
2019-05-26T18:55:52.745Z,0.88
2019-05-26T18:58:21.158Z,0.93
2019-05-26T19:00:49.825Z,0.90
2019-05-26T19:03:18.831Z,0.70
2019-05-26T19:05:47.244Z,1.00
2019-05-26T19:08:15.731Z,0.98
2019-05-26T19:10:44.222Z,0.90
2019-05-26T19:13:12.715Z,1.12
2019-05-26T19:15:41.117Z,0.60
2019-05-26T19:18:19.491Z,0.70
2019-05-26T19:20:39.676Z,1.00
2019-05-26T19:23:08.136Z,0.90
2019-05-26T19:25:36.687Z,0.93
2019-05-26T19:28:05.346Z,0.90
2019-05-26T19:30:34.430Z,0.90
2019-05-26T19:33:02.807Z,0.70
2019-05-26T19:35:31.218Z,0.88
2019-05-26T19:37:59.617Z,1.02
2019-05-26T19:40:28.026Z,1.02
2019-05-26T19:42:56.424Z,0.78
2019-05-26T19:45:26.335Z,1.07
2019-05-26T19:47:56.237Z,0.90
2019-05-26T19:50:25.115Z,0.98
2019-05-26T19:52:53.593Z,0.97
2019-05-26T19:55:21.992Z,1.27
2019-05-26T19:57:50.451Z,0.73
2019-05-26T20:00:20.457Z,0.95
2019-05-26T20:02:48.908Z,1.00
2019-05-26T20:05:18.392Z,1.30
2019-05-26T20:07:46.776Z,1.05
2019-05-26T20:10:18.460Z,1.10
2019-05-26T20:12:46.991Z,1.00
2019-05-26T20:15:18.358Z,1.03
2019-05-26T20:17:46.733Z,1.30
2019-05-26T20:20:15.897Z,1.37
2019-05-26T20:22:44.302Z,1.17
2019-05-26T20:25:13.129Z,1.17
2019-05-26T20:27:41.504Z,1.50
2019-05-26T20:30:10.651Z,1.35
2019-05-26T20:32:39.057Z,1.12
2019-05-26T20:35:09.548Z,1.37
2019-05-26T20:37:37.925Z,1.00
2019-05-26T20:40:08.689Z,1.05
2019-05-26T20:42:37.160Z,0.95
2019-05-26T20:45:07.964Z,1.23
2019-05-26T20:47:36.461Z,1.20
2019-05-26T20:50:09.997Z,1.05
2019-05-26T20:52:38.428Z,1.30
2019-05-26T20:55:08.487Z,0.72
2019-05-26T20:57:36.862Z,1.00
2019-05-26T21:00:11.407Z,1.02
2019-05-26T21:02:40.759Z,1.30
2019-05-26T21:05:09.612Z,1.20
2019-05-26T21:07:38.055Z,1.52
2019-05-26T21:10:08.446Z,1.20
2019-05-26T21:12:36.956Z,1.27
2019-05-26T21:15:06.904Z,1.15
2019-05-26T21:17:35.592Z,0.80
2019-05-26T21:20:07.512Z,1.12
2019-05-26T21:22:35.894Z,1.00
2019-05-26T21:25:06.544Z,1.20
2019-05-26T21:27:34.918Z,1.02
2019-05-26T21:30:05.174Z,0.80
2019-05-26T21:32:33.667Z,1.17
2019-05-26T21:35:02.046Z,1.20
2019-05-26T21:37:30.657Z,1.27
2019-05-26T21:39:59.044Z,1.00
2019-05-26T21:42:27.459Z,1.22
2019-05-26T21:44:55.854Z,1.82
2019-05-26T21:47:24.293Z,1.80
2019-05-26T21:49:52.821Z,1.98
2019-05-26T21:52:21.289Z,2.45
2019-05-26T21:54:49.732Z,3.05
2019-05-26T21:57:18.132Z,3.12
2019-05-26T21:59:46.780Z,2.75
2019-05-26T22:02:16.447Z,2.17
2019-05-26T22:04:44.910Z,1.95
2019-05-26T22:07:13.311Z,1.47
2019-05-26T22:09:41.877Z,1.42
2019-05-26T22:12:10.249Z,1.10
2019-05-26T22:14:38.674Z,1.00
2019-05-26T22:17:07.101Z,1.20
2019-05-26T22:19:35.751Z,1.35
2019-05-26T22:22:07.035Z,1.32
2019-05-26T22:24:35.423Z,1.50
2019-05-26T22:27:04.975Z,1.78
2019-05-26T22:29:33.564Z,1.67
2019-05-26T22:32:01.982Z,1.67
2019-05-26T22:34:30.740Z,1.50
2019-05-26T22:37:00.675Z,1.65
2019-05-26T22:39:29.072Z,1.17
2019-05-26T22:41:57.507Z,1.70
2019-05-26T22:44:25.982Z,1.45
2019-05-26T22:46:54.381Z,1.70
2019-05-26T22:49:22.805Z,1.82
2019-05-26T22:51:51.224Z,1.62
2019-05-26T22:54:19.646Z,1.37
2019-05-26T22:56:48.151Z,1.45
2019-05-26T22:59:16.576Z,1.83
2019-05-26T23:01:46.512Z,1.40
2019-05-26T23:04:14.932Z,1.35
2019-05-26T23:06:44.847Z,1.85
2019-05-26T23:09:14.768Z,1.95
2019-05-26T23:11:43.172Z,1.85
2019-05-26T23:14:11.562Z,1.80
2019-05-26T23:16:40.038Z,1.65
2019-05-26T23:19:18.725Z,2.67
2019-05-26T23:21:38.559Z,2.63
2019-05-26T23:24:07.003Z,2.00
2019-05-26T23:26:35.553Z,1.90
2019-05-26T23:29:04.601Z,2.22
2019-05-26T23:31:33.362Z,2.08
2019-05-26T23:34:01.800Z,2.27
2019-05-26T23:36:30.201Z,2.12
2019-05-26T23:38:58.596Z,2.17
2019-05-26T23:41:27.049Z,1.90
2019-05-26T23:43:55.544Z,1.93
2019-05-26T23:46:23.974Z,1.72
2019-05-26T23:48:52.392Z,1.80
2019-05-26T23:51:20.950Z,2.00
2019-05-26T23:53:49.353Z,2.22
2019-05-26T23:56:17.756Z,1.75
2019-05-26T23:58:46.147Z,2.22
